sensor_id;sensor_type;location;lat;lon;timestamp;temperature;humidity
13462;DHT22;6803;45.264;5.468;2022-12-18T00:01:59;0.60;99.90
13462;DHT22;6803;45.264;5.468;2022-12-18T00:04:30;0.50;99.90
13462;DHT22;6803;45.264;5.468;2022-12-18T00:07:01;0.40;99.90
13462;DHT22;6803;45.264;5.468;2022-12-18T00:09:32;0.40;99.90
13462;DHT22;6803;45.264;5.468;2022-12-18T00:12:05;0.40;99.90
13462;DHT22;6803;45.264;5.468;2022-12-18T00:14:38;0.50;99.90
13462;DHT22;6803;45.264;5.468;2022-12-18T00:17:28;0.50;99.90
13462;DHT22;6803;45.264;5.468;2022-12-18T00:19:59;0.60;99.90
13462;DHT22;6803;45.264;5.468;2022-12-18T00:22:29;0.60;99.90
13462;DHT22;6803;45.264;5.468;2022-12-18T00:25:00;0.50;99.90
13462;DHT22;6803;45.264;5.468;2022-12-18T00:27:31;0.50;99.90
13462;DHT22;6803;45.264;5.468;2022-12-18T00:30:02;0.50;99.90
13462;DHT22;6803;45.264;5.468;2022-12-18T00:32:33;0.50;99.90
13462;DHT22;6803;45.264;5.468;2022-12-18T00:35:06;0.40;99.90
13462;DHT22;6803;45.264;5.468;2022-12-18T00:37:36;0.40;99.90
13462;DHT22;6803;45.264;5.468;2022-12-18T00:40:10;0.50;99.90
13462;DHT22;6803;45.264;5.468;2022-12-18T00:42:41;0.50;99.90
13462;DHT22;6803;45.264;5.468;2022-12-18T00:45:29;0.50;99.90
13462;DHT22;6803;45.264;5.468;2022-12-18T00:48:00;0.40;99.90
13462;DHT22;6803;45.264;5.468;2022-12-18T00:50:30;0.40;99.90
13462;DHT22;6803;45.264;5.468;2022-12-18T00:53:01;0.30;99.90
13462;DHT22;6803;45.264;5.468;2022-12-18T00:55:50;0.20;99.90
13462;DHT22;6803;45.264;5.468;2022-12-18T00:58:21;0.20;99.90
13462;DHT22;6803;45.264;5.468;2022-12-18T01:00:52;0.10;99.90
13462;DHT22;6803;45.264;5.468;2022-12-18T01:03:22;0.00;99.90
13462;DHT22;6803;45.264;5.468;2022-12-18T01:05:53;0.00;99.90
13462;DHT22;6803;45.264;5.468;2022-12-18T01:08:24;0.00;99.90
13462;DHT22;6803;45.264;5.468;2022-12-18T01:10:55;0.00;99.90
13462;DHT22;6803;45.264;5.468;2022-12-18T01:13:26;-0.10;99.90
13462;DHT22;6803;45.264;5.468;2022-12-18T01:15:56;-0.20;99.90
13462;DHT22;6803;45.264;5.468;2022-12-18T01:18:27;-0.30;99.90
13462;DHT22;6803;45.264;5.468;2022-12-18T01:20:58;-0.20;99.90
13462;DHT22;6803;45.264;5.468;2022-12-18T01:23:29;-0.20;99.90
13462;DHT22;6803;45.264;5.468;2022-12-18T01:26:04;-0.20;99.90
13462;DHT22;6803;45.264;5.468;2022-12-18T01:28:35;-0.20;99.90
13462;DHT22;6803;45.264;5.468;2022-12-18T01:31:17;-0.10;99.90
13462;DHT22;6803;45.264;5.468;2022-12-18T01:33:48;-0.20;99.90
13462;DHT22;6803;45.264;5.468;2022-12-18T01:36:21;-0.20;99.90
13462;DHT22;6803;45.264;5.468;2022-12-18T01:38:52;-0.20;99.90
13462;DHT22;6803;45.264;5.468;2022-12-18T01:41:26;-0.30;99.90
13462;DHT22;6803;45.264;5.468;2022-12-18T01:43:59;-0.40;99.90
13462;DHT22;6803;45.264;5.468;2022-12-18T01:46:29;-0.40;99.90
13462;DHT22;6803;45.264;5.468;2022-12-18T01:49:02;-0.50;99.90
13462;DHT22;6803;45.264;5.468;2022-12-18T01:51:33;-0.60;99.90
13462;DHT22;6803;45.264;5.468;2022-12-18T01:54:03;-0.60;99.90
13462;DHT22;6803;45.264;5.468;2022-12-18T01:56:34;-0.60;99.90
13462;DHT22;6803;45.264;5.468;2022-12-18T01:59:06;-0.60;99.90
13462;DHT22;6803;45.264;5.468;2022-12-18T02:01:38;-0.60;99.90
13462;DHT22;6803;45.264;5.468;2022-12-18T02:04:21;-0.60;99.90
13462;DHT22;6803;45.264;5.468;2022-12-18T02:06:54;-0.60;99.90
13462;DHT22;6803;45.264;5.468;2022-12-18T02:09:28;-0.60;99.90
13462;DHT22;6803;45.264;5.468;2022-12-18T02:12:03;-0.70;99.90
13462;DHT22;6803;45.264;5.468;2022-12-18T02:14:35;-0.60;99.90
13462;DHT22;6803;45.264;5.468;2022-12-18T02:17:10;-0.50;99.90
13462;DHT22;6803;45.264;5.468;2022-12-18T02:19:51;-0.50;99.90
13462;DHT22;6803;45.264;5.468;2022-12-18T02:22:29;-0.60;99.90
13462;DHT22;6803;45.264;5.468;2022-12-18T02:25:07;-0.60;99.90
13462;DHT22;6803;45.264;5.468;2022-12-18T02:27:38;-0.70;99.90
13462;DHT22;6803;45.264;5.468;2022-12-18T02:30:29;-0.90;99.90
13462;DHT22;6803;45.264;5.468;2022-12-18T02:33:02;-1.00;99.90
13462;DHT22;6803;45.264;5.468;2022-12-18T02:35:35;-1.20;99.90
13462;DHT22;6803;45.264;5.468;2022-12-18T02:38:07;-1.10;99.90
13462;DHT22;6803;45.264;5.468;2022-12-18T02:40:39;-1.10;99.90
13462;DHT22;6803;45.264;5.468;2022-12-18T02:43:14;-1.10;99.90
13462;DHT22;6803;45.264;5.468;2022-12-18T02:45:50;-1.10;99.90
13462;DHT22;6803;45.264;5.468;2022-12-18T02:48:23;-1.10;99.90
13462;DHT22;6803;45.264;5.468;2022-12-18T02:50:57;-1.00;99.90
13462;DHT22;6803;45.264;5.468;2022-12-18T02:53:30;-1.10;99.90
13462;DHT22;6803;45.264;5.468;2022-12-18T02:56:05;-1.10;99.90
13462;DHT22;6803;45.264;5.468;2022-12-18T02:58:40;-1.10;99.90
13462;DHT22;6803;45.264;5.468;2022-12-18T03:01:13;-1.00;99.90
13462;DHT22;6803;45.264;5.468;2022-12-18T03:04:04;-1.00;99.90
13462;DHT22;6803;45.264;5.468;2022-12-18T03:06:38;-1.00;99.90
13462;DHT22;6803;45.264;5.468;2022-12-18T03:09:12;-1.00;99.90
13462;DHT22;6803;45.264;5.468;2022-12-18T03:11:45;-1.00;99.90
13462;DHT22;6803;45.264;5.468;2022-12-18T03:14:54;-1.00;99.90
13462;DHT22;6803;45.264;5.468;2022-12-18T03:17:27;-1.10;99.90
13462;DHT22;6803;45.264;5.468;2022-12-18T03:20:04;-1.10;99.90
13462;DHT22;6803;45.264;5.468;2022-12-18T03:22:36;-1.20;99.90
13462;DHT22;6803;45.264;5.468;2022-12-18T03:25:11;-1.10;99.90
13462;DHT22;6803;45.264;5.468;2022-12-18T03:27:45;-1.10;99.90
13462;DHT22;6803;45.264;5.468;2022-12-18T03:30:17;-1.00;99.90
13462;DHT22;6803;45.264;5.468;2022-12-18T03:32:50;-1.00;99.90
13462;DHT22;6803;45.264;5.468;2022-12-18T03:35:26;-1.00;99.90
13462;DHT22;6803;45.264;5.468;2022-12-18T03:37:57;-0.90;99.90
13462;DHT22;6803;45.264;5.468;2022-12-18T03:40:31;-1.00;99.90
13462;DHT22;6803;45.264;5.468;2022-12-18T03:43:06;-1.20;99.90
13462;DHT22;6803;45.264;5.468;2022-12-18T03:45:38;-1.30;99.90
13462;DHT22;6803;45.264;5.468;2022-12-18T03:48:13;-1.40;99.90
13462;DHT22;6803;45.264;5.468;2022-12-18T03:50:46;-1.40;99.90
13462;DHT22;6803;45.264;5.468;2022-12-18T03:53:23;-1.40;99.90
13462;DHT22;6803;45.264;5.468;2022-12-18T03:55:55;-1.40;99.90
13462;DHT22;6803;45.264;5.468;2022-12-18T03:58:28;-1.50;99.90
13462;DHT22;6803;45.264;5.468;2022-12-18T04:01:03;-1.50;99.90
13462;DHT22;6803;45.264;5.468;2022-12-18T04:06:12;-1.20;99.90
13462;DHT22;6803;45.264;5.468;2022-12-18T04:08:44;-1.00;99.90
13462;DHT22;6803;45.264;5.468;2022-12-18T04:13:57;-1.40;99.90
13462;DHT22;6803;45.264;5.468;2022-12-18T04:19:09;-1.30;99.90
13462;DHT22;6803;45.264;5.468;2022-12-18T04:21:40;-1.40;99.90
13462;DHT22;6803;45.264;5.468;2022-12-18T04:24:10;-1.40;99.90
13462;DHT22;6803;45.264;5.468;2022-12-18T04:26:41;-1.40;99.90
13462;DHT22;6803;45.264;5.468;2022-12-18T04:31:50;-1.40;99.90
13462;DHT22;6803;45.264;5.468;2022-12-18T04:34:21;-1.30;99.90
13462;DHT22;6803;45.264;5.468;2022-12-18T04:36:52;-1.30;99.90
13462;DHT22;6803;45.264;5.468;2022-12-18T04:39:23;-1.20;99.90
13462;DHT22;6803;45.264;5.468;2022-12-18T04:41:54;-1.10;99.90
13462;DHT22;6803;45.264;5.468;2022-12-18T04:44:25;-1.10;99.90
13462;DHT22;6803;45.264;5.468;2022-12-18T04:46:55;-1.10;99.90
13462;DHT22;6803;45.264;5.468;2022-12-18T04:49:26;-1.10;99.90
13462;DHT22;6803;45.264;5.468;2022-12-18T04:51:57;-1.00;99.90
13462;DHT22;6803;45.264;5.468;2022-12-18T04:54:27;-1.10;99.90
13462;DHT22;6803;45.264;5.468;2022-12-18T04:56:58;-1.40;99.90
13462;DHT22;6803;45.264;5.468;2022-12-18T04:59:29;-1.40;99.90
13462;DHT22;6803;45.264;5.468;2022-12-18T05:01:59;-1.40;99.90
13462;DHT22;6803;45.264;5.468;2022-12-18T05:04:30;-1.60;99.90
13462;DHT22;6803;45.264;5.468;2022-12-18T05:07:01;-1.60;99.90
13462;DHT22;6803;45.264;5.468;2022-12-18T05:09:31;-1.70;99.90
13462;DHT22;6803;45.264;5.468;2022-12-18T05:12:02;-1.70;99.90
13462;DHT22;6803;45.264;5.468;2022-12-18T05:14:33;-1.70;99.90
13462;DHT22;6803;45.264;5.468;2022-12-18T05:17:04;-1.60;99.90
13462;DHT22;6803;45.264;5.468;2022-12-18T05:19:34;-1.60;99.90
13462;DHT22;6803;45.264;5.468;2022-12-18T05:22:08;-1.60;99.90
13462;DHT22;6803;45.264;5.468;2022-12-18T05:24:39;-1.60;99.90
13462;DHT22;6803;45.264;5.468;2022-12-18T05:27:10;-1.70;99.90
13462;DHT22;6803;45.264;5.468;2022-12-18T05:29:40;-1.70;99.90
13462;DHT22;6803;45.264;5.468;2022-12-18T05:32:11;-1.70;99.90
13462;DHT22;6803;45.264;5.468;2022-12-18T05:34:42;-1.90;99.90
13462;DHT22;6803;45.264;5.468;2022-12-18T05:37:13;-1.90;99.90
13462;DHT22;6803;45.264;5.468;2022-12-18T05:39:44;-1.90;99.90
13462;DHT22;6803;45.264;5.468;2022-12-18T05:42:15;-1.90;99.90
13462;DHT22;6803;45.264;5.468;2022-12-18T05:44:45;-1.90;99.90
13462;DHT22;6803;45.264;5.468;2022-12-18T05:47:16;-1.80;99.90
13462;DHT22;6803;45.264;5.468;2022-12-18T05:49:47;-1.80;99.90
13462;DHT22;6803;45.264;5.468;2022-12-18T05:52:18;-1.80;99.90
13462;DHT22;6803;45.264;5.468;2022-12-18T05:54:48;-1.80;99.90
13462;DHT22;6803;45.264;5.468;2022-12-18T05:57:19;-1.80;99.90
13462;DHT22;6803;45.264;5.468;2022-12-18T05:59:50;-1.80;99.90
13462;DHT22;6803;45.264;5.468;2022-12-18T06:02:20;-2.00;99.90
13462;DHT22;6803;45.264;5.468;2022-12-18T06:04:51;-1.90;99.90
13462;DHT22;6803;45.264;5.468;2022-12-18T06:07:22;-1.80;99.90
13462;DHT22;6803;45.264;5.468;2022-12-18T06:09:53;-1.80;99.90
13462;DHT22;6803;45.264;5.468;2022-12-18T06:12:23;-1.80;99.90
13462;DHT22;6803;45.264;5.468;2022-12-18T06:14:54;-1.80;99.90
13462;DHT22;6803;45.264;5.468;2022-12-18T06:17:28;-1.70;99.90
13462;DHT22;6803;45.264;5.468;2022-12-18T06:20:00;-1.70;99.90
13462;DHT22;6803;45.264;5.468;2022-12-18T06:22:32;-1.70;99.90
13462;DHT22;6803;45.264;5.468;2022-12-18T06:25:05;-1.80;99.90
13462;DHT22;6803;45.264;5.468;2022-12-18T06:27:36;-1.80;99.90
13462;DHT22;6803;45.264;5.468;2022-12-18T06:30:10;-1.90;99.90
13462;DHT22;6803;45.264;5.468;2022-12-18T06:32:42;-1.90;99.90
13462;DHT22;6803;45.264;5.468;2022-12-18T06:35:15;-1.90;99.90
13462;DHT22;6803;45.264;5.468;2022-12-18T06:37:48;-1.90;99.90
13462;DHT22;6803;45.264;5.468;2022-12-18T06:40:19;-1.70;99.90
13462;DHT22;6803;45.264;5.468;2022-12-18T06:42:49;-1.30;99.90
13462;DHT22;6803;45.264;5.468;2022-12-18T06:45:21;-1.40;99.90
13462;DHT22;6803;45.264;5.468;2022-12-18T06:47:52;-0.70;99.90
13462;DHT22;6803;45.264;5.468;2022-12-18T06:50:22;-0.70;99.90
13462;DHT22;6803;45.264;5.468;2022-12-18T06:52:53;-0.60;99.90
13462;DHT22;6803;45.264;5.468;2022-12-18T06:55:24;-0.60;99.90
13462;DHT22;6803;45.264;5.468;2022-12-18T06:57:54;-0.60;99.90
13462;DHT22;6803;45.264;5.468;2022-12-18T07:00:25;-0.40;99.90
13462;DHT22;6803;45.264;5.468;2022-12-18T07:02:56;-0.50;99.90
13462;DHT22;6803;45.264;5.468;2022-12-18T07:05:27;-0.50;99.90
13462;DHT22;6803;45.264;5.468;2022-12-18T07:07:57;-0.40;99.90
13462;DHT22;6803;45.264;5.468;2022-12-18T07:10:29;-0.50;99.90
13462;DHT22;6803;45.264;5.468;2022-12-18T07:13:00;-0.30;99.90
13462;DHT22;6803;45.264;5.468;2022-12-18T07:15:30;-0.30;99.90
13462;DHT22;6803;45.264;5.468;2022-12-18T07:18:02;-0.30;99.90
13462;DHT22;6803;45.264;5.468;2022-12-18T07:20:32;-0.20;99.90
13462;DHT22;6803;45.264;5.468;2022-12-18T07:23:03;-0.30;99.90
13462;DHT22;6803;45.264;5.468;2022-12-18T07:25:36;-0.30;99.90
13462;DHT22;6803;45.264;5.468;2022-12-18T07:28:07;-0.30;99.90
13462;DHT22;6803;45.264;5.468;2022-12-18T07:30:39;-0.20;99.90
13462;DHT22;6803;45.264;5.468;2022-12-18T07:33:10;-0.20;99.90
13462;DHT22;6803;45.264;5.468;2022-12-18T07:35:41;-0.30;99.90
13462;DHT22;6803;45.264;5.468;2022-12-18T07:38:11;-0.20;99.90
13462;DHT22;6803;45.264;5.468;2022-12-18T07:40:42;-0.20;99.90
13462;DHT22;6803;45.264;5.468;2022-12-18T07:43:13;-0.30;99.90
13462;DHT22;6803;45.264;5.468;2022-12-18T07:45:44;-0.40;99.90
13462;DHT22;6803;45.264;5.468;2022-12-18T07:48:16;-0.30;99.90
13462;DHT22;6803;45.264;5.468;2022-12-18T07:50:47;-0.40;99.90
13462;DHT22;6803;45.264;5.468;2022-12-18T07:53:17;-0.40;99.90
13462;DHT22;6803;45.264;5.468;2022-12-18T07:55:48;-0.30;99.90
13462;DHT22;6803;45.264;5.468;2022-12-18T07:58:20;-0.40;99.90
13462;DHT22;6803;45.264;5.468;2022-12-18T08:00:51;-0.40;99.90
13462;DHT22;6803;45.264;5.468;2022-12-18T08:03:22;-0.60;99.90
13462;DHT22;6803;45.264;5.468;2022-12-18T08:05:53;-0.90;99.90
13462;DHT22;6803;45.264;5.468;2022-12-18T08:08:25;-1.00;99.90
13462;DHT22;6803;45.264;5.468;2022-12-18T08:10:57;-1.10;99.90
13462;DHT22;6803;45.264;5.468;2022-12-18T08:13:28;-1.10;99.90
13462;DHT22;6803;45.264;5.468;2022-12-18T08:16:00;-1.10;99.90
13462;DHT22;6803;45.264;5.468;2022-12-18T08:21:14;-1.00;99.90
13462;DHT22;6803;45.264;5.468;2022-12-18T08:23:45;-0.90;99.90
13462;DHT22;6803;45.264;5.468;2022-12-18T08:26:17;-0.90;99.90
13462;DHT22;6803;45.264;5.468;2022-12-18T08:28:49;-0.90;99.90
13462;DHT22;6803;45.264;5.468;2022-12-18T08:31:21;-1.20;99.90
13462;DHT22;6803;45.264;5.468;2022-12-18T08:33:54;-0.80;99.90
13462;DHT22;6803;45.264;5.468;2022-12-18T08:36:26;-0.60;99.90
13462;DHT22;6803;45.264;5.468;2022-12-18T08:38:57;-0.50;99.90
13462;DHT22;6803;45.264;5.468;2022-12-18T08:41:30;-0.40;99.90
13462;DHT22;6803;45.264;5.468;2022-12-18T08:44:02;-0.30;99.90
13462;DHT22;6803;45.264;5.468;2022-12-18T08:46:50;-0.20;99.90
13462;DHT22;6803;45.264;5.468;2022-12-18T08:49:21;0.00;99.90
13462;DHT22;6803;45.264;5.468;2022-12-18T08:51:55;0.20;99.90
13462;DHT22;6803;45.264;5.468;2022-12-18T08:54:28;0.30;99.90
13462;DHT22;6803;45.264;5.468;2022-12-18T08:56:59;0.30;99.90
13462;DHT22;6803;45.264;5.468;2022-12-18T08:59:30;0.60;99.90
13462;DHT22;6803;45.264;5.468;2022-12-18T09:02:00;0.70;99.90
13462;DHT22;6803;45.264;5.468;2022-12-18T09:04:32;0.80;99.90
13462;DHT22;6803;45.264;5.468;2022-12-18T09:07:02;1.00;99.90
13462;DHT22;6803;45.264;5.468;2022-12-18T09:09:33;1.10;99.90
13462;DHT22;6803;45.264;5.468;2022-12-18T09:12:04;1.20;99.90
13462;DHT22;6803;45.264;5.468;2022-12-18T09:14:35;1.40;99.90
13462;DHT22;6803;45.264;5.468;2022-12-18T09:17:06;1.40;99.90
13462;DHT22;6803;45.264;5.468;2022-12-18T09:19:37;1.60;99.90
13462;DHT22;6803;45.264;5.468;2022-12-18T09:22:07;1.70;99.90
13462;DHT22;6803;45.264;5.468;2022-12-18T09:24:39;1.90;99.90
13462;DHT22;6803;45.264;5.468;2022-12-18T09:27:09;2.00;99.90
13462;DHT22;6803;45.264;5.468;2022-12-18T09:29:40;1.90;99.90
13462;DHT22;6803;45.264;5.468;2022-12-18T09:32:11;1.90;99.90
13462;DHT22;6803;45.264;5.468;2022-12-18T09:34:43;1.90;99.90
13462;DHT22;6803;45.264;5.468;2022-12-18T09:37:14;2.00;99.90
13462;DHT22;6803;45.264;5.468;2022-12-18T09:39:45;2.10;99.90
13462;DHT22;6803;45.264;5.468;2022-12-18T09:42:19;2.20;99.90
13462;DHT22;6803;45.264;5.468;2022-12-18T09:44:52;2.40;99.90
13462;DHT22;6803;45.264;5.468;2022-12-18T09:47:27;2.50;99.90
13462;DHT22;6803;45.264;5.468;2022-12-18T09:50:00;2.60;99.90
13462;DHT22;6803;45.264;5.468;2022-12-18T09:52:34;2.80;99.90
13462;DHT22;6803;45.264;5.468;2022-12-18T09:55:11;2.80;99.90
13462;DHT22;6803;45.264;5.468;2022-12-18T09:57:45;2.90;99.90
13462;DHT22;6803;45.264;5.468;2022-12-18T10:00:19;2.90;99.90
13462;DHT22;6803;45.264;5.468;2022-12-18T10:02:53;3.10;99.90
13462;DHT22;6803;45.264;5.468;2022-12-18T10:05:29;3.00;99.90
13462;DHT22;6803;45.264;5.468;2022-12-18T10:08:02;3.10;99.90
13462;DHT22;6803;45.264;5.468;2022-12-18T10:10:40;3.10;99.90
13462;DHT22;6803;45.264;5.468;2022-12-18T10:13:17;3.10;99.90
13462;DHT22;6803;45.264;5.468;2022-12-18T10:16:02;3.10;99.90
13462;DHT22;6803;45.264;5.468;2022-12-18T10:18:44;3.20;99.90
13462;DHT22;6803;45.264;5.468;2022-12-18T10:21:18;3.20;99.90
13462;DHT22;6803;45.264;5.468;2022-12-18T10:23:52;3.20;99.90
13462;DHT22;6803;45.264;5.468;2022-12-18T10:26:24;3.30;99.90
13462;DHT22;6803;45.264;5.468;2022-12-18T10:28:55;3.40;99.90
13462;DHT22;6803;45.264;5.468;2022-12-18T10:31:29;3.50;99.90
13462;DHT22;6803;45.264;5.468;2022-12-18T10:34:00;3.60;99.90
13462;DHT22;6803;45.264;5.468;2022-12-18T10:36:31;3.70;99.90
13462;DHT22;6803;45.264;5.468;2022-12-18T10:42:09;3.90;99.90
13462;DHT22;6803;45.264;5.468;2022-12-18T10:44:40;3.60;99.90
13462;DHT22;6803;45.264;5.468;2022-12-18T10:47:15;3.60;99.90
13462;DHT22;6803;45.264;5.468;2022-12-18T10:49:52;3.70;99.90
13462;DHT22;6803;45.264;5.468;2022-12-18T10:52:25;3.70;99.90
13462;DHT22;6803;45.264;5.468;2022-12-18T10:55:04;3.60;99.90
13462;DHT22;6803;45.264;5.468;2022-12-18T10:57:36;3.70;99.90
13462;DHT22;6803;45.264;5.468;2022-12-18T11:03:32;3.70;99.90
13462;DHT22;6803;45.264;5.468;2022-12-18T11:06:08;4.00;99.90
13462;DHT22;6803;45.264;5.468;2022-12-18T11:08:39;4.20;99.90
13462;DHT22;6803;45.264;5.468;2022-12-18T11:11:20;4.30;99.90
13462;DHT22;6803;45.264;5.468;2022-12-18T11:16:42;5.20;99.90
13462;DHT22;6803;45.264;5.468;2022-12-18T11:19:19;5.90;99.90
13462;DHT22;6803;45.264;5.468;2022-12-18T11:21:51;6.60;99.90
13462;DHT22;6803;45.264;5.468;2022-12-18T11:24:26;6.70;99.90
13462;DHT22;6803;45.264;5.468;2022-12-18T11:26:59;6.90;99.90
13462;DHT22;6803;45.264;5.468;2022-12-18T11:29:34;7.30;99.90
13462;DHT22;6803;45.264;5.468;2022-12-18T11:35:16;6.80;99.90
13462;DHT22;6803;45.264;5.468;2022-12-18T11:37:50;6.90;99.90
13462;DHT22;6803;45.264;5.468;2022-12-18T11:40:29;6.90;99.90
13462;DHT22;6803;45.264;5.468;2022-12-18T11:42:59;6.60;99.90
13462;DHT22;6803;45.264;5.468;2022-12-18T11:45:34;7.10;99.90
13462;DHT22;6803;45.264;5.468;2022-12-18T11:48:12;7.10;99.90
13462;DHT22;6803;45.264;5.468;2022-12-18T11:50:46;7.40;99.90
13462;DHT22;6803;45.264;5.468;2022-12-18T11:53:18;7.80;99.90
13462;DHT22;6803;45.264;5.468;2022-12-18T11:55:56;8.00;99.90
13462;DHT22;6803;45.264;5.468;2022-12-18T11:58:37;8.10;99.90
13462;DHT22;6803;45.264;5.468;2022-12-18T12:01:11;8.30;99.90
13462;DHT22;6803;45.264;5.468;2022-12-18T12:06:57;9.20;99.90
13462;DHT22;6803;45.264;5.468;2022-12-18T12:09:33;8.90;99.90
13462;DHT22;6803;45.264;5.468;2022-12-18T12:12:13;8.50;99.90
13462;DHT22;6803;45.264;5.468;2022-12-18T12:14:49;8.80;99.90
13462;DHT22;6803;45.264;5.468;2022-12-18T12:17:24;8.40;99.90
13462;DHT22;6803;45.264;5.468;2022-12-18T12:19:59;8.60;99.90
13462;DHT22;6803;45.264;5.468;2022-12-18T12:22:34;8.50;99.90
13462;DHT22;6803;45.264;5.468;2022-12-18T12:25:14;8.40;99.90
13462;DHT22;6803;45.264;5.468;2022-12-18T12:27:49;8.50;99.90
13462;DHT22;6803;45.264;5.468;2022-12-18T12:30:24;8.70;99.90
13462;DHT22;6803;45.264;5.468;2022-12-18T12:33:02;8.80;99.90
13462;DHT22;6803;45.264;5.468;2022-12-18T12:35:38;9.20;99.90
13462;DHT22;6803;45.264;5.468;2022-12-18T12:40:54;10.10;99.90
13462;DHT22;6803;45.264;5.468;2022-12-18T12:43:32;9.90;99.90
13462;DHT22;6803;45.264;5.468;2022-12-18T12:46:06;9.60;99.90
13462;DHT22;6803;45.264;5.468;2022-12-18T12:48:46;9.50;99.90
13462;DHT22;6803;45.264;5.468;2022-12-18T12:51:21;8.80;99.90
13462;DHT22;6803;45.264;5.468;2022-12-18T12:53:53;9.30;99.90
13462;DHT22;6803;45.264;5.468;2022-12-18T12:56:36;9.60;99.90
13462;DHT22;6803;45.264;5.468;2022-12-18T12:59:04;9.90;99.90
13462;DHT22;6803;45.264;5.468;2022-12-18T13:01:39;10.10;99.90
13462;DHT22;6803;45.264;5.468;2022-12-18T13:04:18;10.20;99.90
13462;DHT22;6803;45.264;5.468;2022-12-18T13:06:53;9.30;99.90
13462;DHT22;6803;45.264;5.468;2022-12-18T13:09:23;9.00;99.90
13462;DHT22;6803;45.264;5.468;2022-12-18T13:11:57;8.80;99.90
13462;DHT22;6803;45.264;5.468;2022-12-18T13:14:45;8.80;99.90
13462;DHT22;6803;45.264;5.468;2022-12-18T13:20:14;8.20;99.90
13462;DHT22;6803;45.264;5.468;2022-12-18T13:22:46;8.20;99.90
13462;DHT22;6803;45.264;5.468;2022-12-18T13:25:35;8.10;99.90
13462;DHT22;6803;45.264;5.468;2022-12-18T13:28:12;7.40;99.90
13462;DHT22;6803;45.264;5.468;2022-12-18T13:30:53;7.20;99.90
13462;DHT22;6803;45.264;5.468;2022-12-18T13:36:29;6.80;99.90
13462;DHT22;6803;45.264;5.468;2022-12-18T13:39:37;6.80;99.90
13462;DHT22;6803;45.264;5.468;2022-12-18T13:42:38;7.00;99.90
13462;DHT22;6803;45.264;5.468;2022-12-18T13:45:45;6.80;99.90
13462;DHT22;6803;45.264;5.468;2022-12-18T13:48:22;6.70;99.90
13462;DHT22;6803;45.264;5.468;2022-12-18T13:51:00;6.60;99.90
13462;DHT22;6803;45.264;5.468;2022-12-18T13:53:36;6.70;99.90
13462;DHT22;6803;45.264;5.468;2022-12-18T13:56:09;6.70;99.90
13462;DHT22;6803;45.264;5.468;2022-12-18T13:58:41;6.60;99.90
13462;DHT22;6803;45.264;5.468;2022-12-18T14:01:26;6.50;99.90
13462;DHT22;6803;45.264;5.468;2022-12-18T14:04:11;6.40;99.90
13462;DHT22;6803;45.264;5.468;2022-12-18T14:06:43;6.40;99.90
13462;DHT22;6803;45.264;5.468;2022-12-18T14:09:16;6.30;99.90
13462;DHT22;6803;45.264;5.468;2022-12-18T14:11:50;6.30;99.90
13462;DHT22;6803;45.264;5.468;2022-12-18T14:14:21;6.10;99.90
13462;DHT22;6803;45.264;5.468;2022-12-18T14:16:55;5.90;99.90
13462;DHT22;6803;45.264;5.468;2022-12-18T14:19:27;5.90;99.90
13462;DHT22;6803;45.264;5.468;2022-12-18T14:21:58;5.90;99.90
13462;DHT22;6803;45.264;5.468;2022-12-18T14:24:29;5.90;99.90
13462;DHT22;6803;45.264;5.468;2022-12-18T14:27:12;5.90;99.90
13462;DHT22;6803;45.264;5.468;2022-12-18T14:29:44;5.90;99.90
13462;DHT22;6803;45.264;5.468;2022-12-18T14:32:16;5.80;99.90
13462;DHT22;6803;45.264;5.468;2022-12-18T14:34:49;5.90;99.90
13462;DHT22;6803;45.264;5.468;2022-12-18T14:37:22;5.80;99.90
13462;DHT22;6803;45.264;5.468;2022-12-18T14:39:56;5.80;99.90
13462;DHT22;6803;45.264;5.468;2022-12-18T14:42:28;5.80;99.90
13462;DHT22;6803;45.264;5.468;2022-12-18T14:45:39;6.00;99.90
13462;DHT22;6803;45.264;5.468;2022-12-18T14:48:15;5.90;99.90
13462;DHT22;6803;45.264;5.468;2022-12-18T14:50:58;5.90;99.90
13462;DHT22;6803;45.264;5.468;2022-12-18T14:53:48;5.90;99.90
13462;DHT22;6803;45.264;5.468;2022-12-18T14:56:24;5.80;99.90
13462;DHT22;6803;45.264;5.468;2022-12-18T14:58:57;5.80;99.90
13462;DHT22;6803;45.264;5.468;2022-12-18T15:01:31;5.90;99.90
13462;DHT22;6803;45.264;5.468;2022-12-18T15:04:04;5.90;99.90
13462;DHT22;6803;45.264;5.468;2022-12-18T15:06:37;5.90;99.90
13462;DHT22;6803;45.264;5.468;2022-12-18T15:09:22;5.80;99.90
13462;DHT22;6803;45.264;5.468;2022-12-18T15:11:57;5.70;99.90
13462;DHT22;6803;45.264;5.468;2022-12-18T15:14:38;5.60;99.90
13462;DHT22;6803;45.264;5.468;2022-12-18T15:17:16;5.40;99.90
13462;DHT22;6803;45.264;5.468;2022-12-18T15:19:49;5.30;99.90
13462;DHT22;6803;45.264;5.468;2022-12-18T15:22:24;5.30;99.90
13462;DHT22;6803;45.264;5.468;2022-12-18T15:24:57;5.10;99.90
13462;DHT22;6803;45.264;5.468;2022-12-18T15:27:45;4.90;99.90
13462;DHT22;6803;45.264;5.468;2022-12-18T15:30:23;5.00;99.90
13462;DHT22;6803;45.264;5.468;2022-12-18T15:35:46;5.10;99.90
13462;DHT22;6803;45.264;5.468;2022-12-18T15:38:19;5.40;99.90
13462;DHT22;6803;45.264;5.468;2022-12-18T15:40:51;5.50;99.90
13462;DHT22;6803;45.264;5.468;2022-12-18T15:43:23;5.30;99.90
13462;DHT22;6803;45.264;5.468;2022-12-18T15:46:14;5.30;99.90
13462;DHT22;6803;45.264;5.468;2022-12-18T15:48:48;5.30;99.90
13462;DHT22;6803;45.264;5.468;2022-12-18T15:51:23;5.40;99.90
13462;DHT22;6803;45.264;5.468;2022-12-18T15:53:58;5.20;99.90
13462;DHT22;6803;45.264;5.468;2022-12-18T15:56:29;4.90;99.90
13462;DHT22;6803;45.264;5.468;2022-12-18T15:59:19;4.90;99.90
13462;DHT22;6803;45.264;5.468;2022-12-18T16:01:52;5.00;99.90
13462;DHT22;6803;45.264;5.468;2022-12-18T16:04:23;4.60;99.90
13462;DHT22;6803;45.264;5.468;2022-12-18T16:06:54;4.40;99.90
13462;DHT22;6803;45.264;5.468;2022-12-18T16:09:27;4.70;99.90
13462;DHT22;6803;45.264;5.468;2022-12-18T16:11:58;4.40;99.90
13462;DHT22;6803;45.264;5.468;2022-12-18T16:14:30;4.40;99.90
13462;DHT22;6803;45.264;5.468;2022-12-18T16:17:03;4.70;99.90
13462;DHT22;6803;45.264;5.468;2022-12-18T16:19:35;4.60;99.90
13462;DHT22;6803;45.264;5.468;2022-12-18T16:22:08;4.50;99.90
13462;DHT22;6803;45.264;5.468;2022-12-18T16:24:38;4.60;99.90
13462;DHT22;6803;45.264;5.468;2022-12-18T16:27:09;4.40;99.90
13462;DHT22;6803;45.264;5.468;2022-12-18T16:29:40;4.30;99.90
13462;DHT22;6803;45.264;5.468;2022-12-18T16:32:13;4.40;99.90
13462;DHT22;6803;45.264;5.468;2022-12-18T16:34:44;4.40;99.90
13462;DHT22;6803;45.264;5.468;2022-12-18T16:37:16;4.40;99.90
13462;DHT22;6803;45.264;5.468;2022-12-18T16:39:46;4.80;99.90
13462;DHT22;6803;45.264;5.468;2022-12-18T16:42:18;4.70;99.90
13462;DHT22;6803;45.264;5.468;2022-12-18T16:44:50;4.50;99.90
13462;DHT22;6803;45.264;5.468;2022-12-18T16:47:20;4.20;99.90
13462;DHT22;6803;45.264;5.468;2022-12-18T16:49:51;4.10;99.90
13462;DHT22;6803;45.264;5.468;2022-12-18T16:52:22;4.20;99.90
13462;DHT22;6803;45.264;5.468;2022-12-18T16:54:52;4.20;99.90
13462;DHT22;6803;45.264;5.468;2022-12-18T16:57:23;4.20;99.90
13462;DHT22;6803;45.264;5.468;2022-12-18T16:59:54;4.40;99.90
13462;DHT22;6803;45.264;5.468;2022-12-18T17:02:27;4.50;99.90
13462;DHT22;6803;45.264;5.468;2022-12-18T17:04:59;4.40;99.90
13462;DHT22;6803;45.264;5.468;2022-12-18T17:07:29;4.20;99.90
13462;DHT22;6803;45.264;5.468;2022-12-18T17:10:00;4.40;99.90
13462;DHT22;6803;45.264;5.468;2022-12-18T17:12:31;4.40;99.90
13462;DHT22;6803;45.264;5.468;2022-12-18T17:15:02;4.30;99.90
13462;DHT22;6803;45.264;5.468;2022-12-18T17:17:33;4.20;99.90